Time;durP1;ratioP1;P1;durP2;ratioP2;P2;SDS_P1;SDS_P2;PMS_P1;PMS_P2;Temp;Humidity;BMP_temperature;BMP_pressure;BME280_temperature;BME280_humidity;BME280_pressure;Samples;Min_cycle;Max_cycle;Signal;HPM_P1;HPM_P2
2021/08/30 00:00:31;;;;;;;26.43;23.50;;;15.20;99.90;;;;;;4989874;28;20169;-91
2021/08/30 00:02:56;;;;;;;26.87;23.60;;;17.60;99.90;;;;;;4983264;28;20463;-92
2021/08/30 00:05:23;;;;;;;25.10;22.57;;;17.90;99.90;;;;;;5002028;28;20169;-90
2021/08/30 00:07:49;;;;;;;25.90;20.53;;;16.50;99.90;;;;;;4988669;28;20170;-90
2021/08/30 00:10:16;;;;;;;26.07;22.13;;;17.80;99.90;;;;;;4989010;28;20468;-91
2021/08/30 00:12:43;;;;;;;29.33;23.67;;;15.40;99.90;;;;;;5004852;28;20169;-90
2021/08/30 00:15:12;;;;;;;25.30;22.60;;;16.30;99.90;;;;;;4991826;28;20480;-91
2021/08/30 00:17:38;;;;;;;26.03;23.17;;;16.70;99.90;;;;;;4987262;28;20470;-92
2021/08/30 00:20:06;;;;;;;29.20;23.57;;;16.50;99.90;;;;;;4987013;28;20512;-92
2021/08/30 00:22:32;;;;;;;25.37;22.80;;;16.50;99.90;;;;;;5003242;28;20177;-89
2021/08/30 00:24:57;;;;;;;28.43;24.57;;;16.80;99.90;;;;;;4985231;28;20460;-90
2021/08/30 00:27:23;;;;;;;29.20;24.10;;;18.20;99.90;;;;;;4985308;28;20253;-89
2021/08/30 00:29:49;;;;;;;27.53;21.80;;;18.30;99.90;;;;;;5007629;28;20229;-90
2021/08/30 00:32:14;;;;;;;26.63;23.73;;;16.50;99.90;;;;;;4986829;28;20272;-90
2021/08/30 00:34:40;;;;;;;25.93;23.00;;;16.10;99.90;;;;;;5004703;28;20221;-91
2021/08/30 00:37:11;;;;;;;26.60;22.03;;;16.10;99.90;;;;;;4993297;28;20209;-91
2021/08/30 00:39:36;;;;;;;34.73;24.90;;;16.60;99.90;;;;;;4990069;28;20181;-90
2021/08/30 00:42:02;;;;;;;26.60;23.70;;;16.80;99.90;;;;;;4995817;28;20419;-90
2021/08/30 00:44:31;;;;;;;26.37;23.40;;;16.40;99.90;;;;;;5016221;28;20181;-90
2021/08/30 00:47:01;;;;;;;28.90;25.23;;;16.50;99.90;;;;;;5016701;28;20382;-90
2021/08/30 00:49:27;;;;;;;25.63;23.03;;;16.50;99.90;;;;;;4998942;28;20447;-91
2021/08/30 00:51:55;;;;;;;24.30;21.80;;;17.90;99.90;;;;;;5017474;28;20188;-91
2021/08/30 00:54:21;;;;;;;26.77;22.70;;;16.50;99.90;;;;;;4991966;28;20177;-90
2021/08/30 00:56:47;;;;;;;26.93;22.00;;;16.50;99.90;;;;;;4991916;28;20491;-91
2021/08/30 00:59:13;;;;;;;24.63;22.17;;;18.00;99.90;;;;;;4991762;28;20424;-89
2021/08/30 01:01:44;;;;;;;25.37;22.73;;;17.10;99.90;;;;;;4990431;28;20433;-89
2021/08/30 01:04:12;;;;;;;28.20;23.73;;;16.70;99.90;;;;;;4994688;28;20420;-92
2021/08/30 01:07:04;;;;;;;32.70;23.33;;;16.10;99.90;;;;;;5014580;28;20412;-92
2021/08/30 01:09:48;;;;;;;27.90;23.80;;;16.50;99.90;;;;;;4996958;28;20421;-91
2021/08/30 01:12:30;;;;;;;27.43;22.93;;;16.50;99.90;;;;;;4987688;28;20405;-91
2021/08/30 01:14:58;;;;;;;28.57;22.70;;;16.50;99.90;;;;;;4993263;28;20420;-91
2021/08/30 01:17:25;;;;;;;23.67;20.87;;;17.60;99.90;;;;;;5010766;28;20505;-91
2021/08/30 01:20:08;;;;;;;25.47;21.63;;;15.90;99.90;;;;;;4959076;28;20421;-91
2021/08/30 01:22:39;;;;;;;25.40;22.80;;;16.20;99.90;;;;;;4995055;28;20410;-91
2021/08/30 01:25:06;;;;;;;28.60;22.10;;;17.00;99.90;;;;;;4990197;28;20475;-92
2021/08/30 01:27:33;;;;;;;26.33;22.30;;;16.80;99.90;;;;;;4994439;28;20425;-90
2021/08/30 01:30:05;;;;;;;28.37;25.30;;;18.00;99.90;;;;;;4977482;28;20523;-92
2021/08/30 01:32:35;;;;;;;26.53;23.67;;;16.80;99.90;;;;;;4992381;28;20479;-91
2021/08/30 01:35:10;;;;;;;30.03;24.07;;;18.60;99.90;;;;;;4993295;28;20421;-91
2021/08/30 01:37:40;;;;;;;27.70;24.57;;;16.90;99.90;;;;;;4995422;28;20464;-89
2021/08/30 01:40:08;;;;;;;28.23;24.00;;;17.10;99.90;;;;;;4993468;28;20421;-90
2021/08/30 01:42:39;;;;;;;29.43;25.30;;;16.60;99.90;;;;;;4991230;28;20413;-91
2021/08/30 01:45:08;;;;;;;27.20;24.27;;;17.20;99.90;;;;;;4995058;28;20413;-92
2021/08/30 01:47:35;;;;;;;28.53;25.37;;;16.60;99.90;;;;;;4991922;28;20480;-92
2021/08/30 01:50:06;;;;;;;30.50;26.10;;;16.70;99.90;;;;;;4995665;28;20403;-91
2021/08/30 01:52:43;;;;;;;29.37;24.37;;;17.60;99.90;;;;;;4978295;28;20520;-90
2021/08/30 02:03:37;;;;;;;29.20;25.30;;;16.90;99.90;;;;;;5013146;28;20413;-91
2021/08/30 02:06:11;;;;;;;29.20;26.07;;;16.40;99.90;;;;;;4999591;28;20420;-92
2021/08/30 02:08:38;;;;;;;32.30;24.63;;;16.80;99.90;;;;;;5013950;28;20421;-91
2021/08/30 02:11:20;;;;;;;31.10;23.40;;;16.10;99.90;;;;;;4985476;28;20493;-90
2021/08/30 02:13:57;;;;;;;30.27;24.57;;;15.90;99.90;;;;;;4964711;28;20192;-91
2021/08/30 02:16:50;;;;;;;25.27;22.60;;;15.70;99.90;;;;;;4975952;28;20525;-91
2021/08/30 02:19:27;;;;;;;28.77;24.67;;;17.00;99.90;;;;;;4980916;28;20414;-92
2021/08/30 02:22:15;;;;;;;31.03;24.30;;;16.40;99.90;;;;;;4980290;28;20413;-91
2021/08/30 02:25:12;;;;;;;27.30;24.20;;;15.90;99.90;;;;;;4997270;28;20430;-91
2021/08/30 02:28:00;;;;;;;28.77;25.30;;;16.20;99.90;;;;;;4988400;28;20485;-90
2021/08/30 02:30:36;;;;;;;28.90;25.57;;;17.30;99.90;;;;;;4981332;28;20421;-91
2021/08/30 02:33:39;;;;;;;29.53;26.57;;;18.10;99.90;;;;;;4978391;28;20425;-91
2021/08/30 02:36:29;;;;;;;31.27;25.67;;;15.50;99.90;;;;;;4982041;28;20436;-91
2021/08/30 02:39:07;;;;;;;27.60;24.40;;;16.40;99.90;;;;;;4981743;28;20433;-91
2021/08/30 02:41:34;;;;;;;30.00;25.37;;;17.80;99.90;;;;;;4995469;28;20421;-91
2021/08/30 02:53:07;;;;;;;34.00;25.40;;;16.30;99.90;;;;;;5059030;23;20479;-91
2021/08/30 02:56:09;;;;;;;27.83;24.93;;;16.40;99.90;;;;;;5018008;28;20416;-90
2021/08/30 02:59:06;;;;;;;27.13;24.40;;;16.10;99.90;;;;;;5006081;28;20424;-89
2021/08/30 03:02:53;;;;;;;30.53;25.17;;;16.20;99.90;;;;;;4992715;28;20404;-90
2021/08/30 03:05:51;;;;;;;29.53;25.17;;;16.40;99.90;;;;;;5015347;28;20443;-89
2021/08/30 03:08:39;;;;;;;28.00;24.60;;;16.40;99.90;;;;;;5016612;28;20432;-91
2021/08/30 03:11:27;;;;;;;33.10;25.37;;;16.30;99.90;;;;;;4997787;28;20500;-91
2021/08/30 03:14:26;;;;;;;28.10;25.20;;;16.40;99.90;;;;;;4988515;28;20484;-90
2021/08/30 03:17:17;;;;;;;25.33;22.50;;;16.50;99.90;;;;;;5000083;28;20476;-92
2021/08/30 03:20:10;;;;;;;28.73;25.77;;;16.40;99.90;;;;;;5016148;28;20416;-89
2021/08/30 03:22:53;;;;;;;29.53;26.33;;;16.90;99.90;;;;;;4968850;28;20420;-89
2021/08/30 03:25:43;;;;;;;30.20;27.10;;;16.90;99.90;;;;;;5000309;28;20424;-89
2021/08/30 03:28:14;;;;;;;30.40;27.20;;;17.00;99.90;;;;;;4971682;28;20441;-90
2021/08/30 03:30:46;;;;;;;29.80;26.63;;;16.50;99.90;;;;;;4998956;28;20424;-90
2021/08/30 03:33:36;;;;;;;30.97;27.23;;;16.60;99.90;;;;;;5000134;28;20429;-92
2021/08/30 03:36:15;;;;;;;35.60;27.20;;;17.70;99.90;;;;;;5186557;23;20435;-91
2021/08/30 03:45:11;;;;;;;36.87;28.30;;;16.40;99.90;;;;;;5070141;23;20498;-91
2021/08/30 03:47:46;;;;;;;41.73;28.33;;;15.70;99.90;;;;;;4998916;28;20452;-91
2021/08/30 03:50:18;;;;;;;32.97;28.20;;;16.90;99.90;;;;;;4999667;28;20435;-91
2021/08/30 03:52:44;;;;;;;30.60;26.20;;;17.50;99.90;;;;;;5217638;23;20472;-91
2021/08/30 03:55:20;;;;;;;32.83;28.87;;;16.50;99.90;;;;;;5253452;23;20503;-92
2021/08/30 03:57:52;;;;;;;32.67;27.90;;;17.40;99.90;;;;;;4980669;28;20472;-91
2021/08/30 04:00:21;;;;;;;33.60;28.23;;;16.10;99.90;;;;;;4996407;28;20402;-92
2021/08/30 04:03:11;;;;;;;34.80;28.60;;;17.40;99.90;;;;;;4996522;28;20417;-90
2021/08/30 04:06:07;;;;;;;32.93;29.27;;;16.40;99.90;;;;;;4979707;28;20417;-91
2021/08/30 04:09:14;;;;;;;34.80;28.97;;;18.20;99.90;;;;;;4995375;28;20477;-91
2021/08/30 04:12:33;;;;;;;35.63;28.90;;;16.50;99.90;;;;;;4999691;28;20405;-91
2021/08/30 04:15:05;;;;;;;35.70;26.70;;;17.20;99.90;;;;;;4988221;28;20452;-91
2021/08/30 04:17:53;;;;;;;32.20;28.47;;;16.40;99.90;;;;;;4982093;28;20829;-90
2021/08/30 04:21:17;;;;;;;34.83;29.80;;;16.30;99.90;;;;;;4990860;28;20444;-91
2021/08/30 04:23:49;;;;;;;36.23;30.17;;;16.90;99.90;;;;;;4999031;28;20497;-91
2021/08/30 04:28:50;;;;;;;33.53;28.90;;;16.50;99.90;;;;;;4977450;28;20577;-91
2021/08/30 04:31:19;;;;;;;34.60;30.87;;;16.50;99.90;;;;;;4963078;28;20444;-92
2021/08/30 04:33:48;;;;;;;34.10;29.83;;;15.70;99.90;;;;;;4962889;29;20431;-90
2021/08/30 04:36:37;;;;;;;36.90;30.47;;;16.40;99.90;;;;;;4962816;28;20453;-91
2021/08/30 04:39:12;;;;;;;34.40;29.77;;;16.30;99.90;;;;;;4958056;28;20457;-90
2021/08/30 04:44:32;;;;;;;35.53;27.97;;;16.40;99.90;;;;;;5347298;23;20520;-93
2021/08/30 04:47:02;;;;;;;33.83;28.87;;;17.20;99.90;;;;;;4980089;28;20511;-91
2021/08/30 04:49:28;;;;;;;34.10;30.33;;;16.90;99.90;;;;;;4961132;28;20430;-90
2021/08/30 04:52:04;;;;;;;34.10;30.37;;;17.30;99.90;;;;;;4961752;28;20553;-89
2021/08/30 04:54:34;;;;;;;37.13;30.57;;;16.30;99.90;;;;;;4983209;28;20177;-91
2021/08/30 04:57:31;;;;;;;36.23;30.93;;;16.50;99.90;;;;;;4979638;28;20512;-92
2021/08/30 05:00:34;;;;;;;33.63;30.00;;;17.00;99.90;;;;;;4975666;28;20425;-90
2021/08/30 05:03:00;;;;;;;37.57;29.87;;;16.20;99.90;;;;;;5289439;23;20459;-87
2021/08/30 05:05:26;;;;;;;32.27;28.90;;;16.50;99.90;;;;;;5066907;23;20493;-86
2021/08/30 05:07:52;;;;;;;34.33;30.70;;;16.30;99.90;;;;;;5305908;23;20479;-92
2021/08/30 05:13:12;;;;;;;33.70;28.90;;;16.50;99.90;;;;;;5155087;23;20488;-87
2021/08/30 05:15:38;;;;;;;37.23;27.53;;;16.40;99.90;;;;;;5191040;23;20531;-88
2021/08/30 05:18:09;;;;;;;31.43;28.03;;;17.70;99.90;;;;;;5092780;23;20541;-90
2021/08/30 05:20:35;;;;;;;34.80;28.40;;;16.30;99.90;;;;;;4980510;28;20450;-88
2021/08/30 05:23:04;;;;;;;32.87;28.57;;;16.10;99.90;;;;;;4980187;28;20430;-90
2021/08/30 05:25:30;;;;;;;32.30;28.37;;;16.00;99.90;;;;;;5192602;23;20236;-90
2021/08/30 05:27:56;;;;;;;34.90;28.83;;;16.90;99.90;;;;;;4995988;28;20434;-88
2021/08/30 05:30:28;;;;;;;34.83;29.27;;;16.50;99.90;;;;;;4976897;28;20185;-90
2021/08/30 05:32:59;;;;;;;32.83;29.40;;;16.60;99.90;;;;;;4956626;28;20244;-91
2021/08/30 05:35:24;;;;;;;32.67;29.37;;;16.70;99.90;;;;;;4972112;28;20441;-88
2021/08/30 05:37:53;;;;;;;33.43;29.93;;;16.70;99.90;;;;;;4986937;28;20465;-92
2021/08/30 05:40:18;;;;;;;34.83;30.40;;;16.60;99.90;;;;;;4968611;28;20166;-88
2021/08/30 05:42:44;;;;;;;36.00;30.90;;;16.70;99.90;;;;;;4986907;28;20401;-90
2021/08/30 05:45:11;;;;;;;39.53;31.20;;;16.80;99.90;;;;;;4952238;28;20257;-89
2021/08/30 05:47:37;;;;;;;33.47;29.30;;;16.80;99.90;;;;;;4983730;28;20189;-90
2021/08/30 05:50:04;;;;;;;34.50;30.77;;;16.60;99.90;;;;;;4967547;28;20441;-93
2021/08/30 05:52:33;;;;;;;42.90;31.57;;;17.00;99.90;;;;;;4974397;28;20725;-89
2021/08/30 05:55:00;;;;;;;35.73;30.80;;;17.10;99.90;;;;;;4951302;29;20520;-92
2021/08/30 05:57:42;;;;;;;34.60;30.73;;;17.00;99.90;;;;;;4937363;29;20508;-90
2021/08/30 06:00:08;;;;;;;36.30;32.30;;;17.90;99.90;;;;;;4950559;29;20411;-87
2021/08/30 06:02:34;;;;;;;35.30;30.17;;;17.10;99.90;;;;;;4949818;29;20799;-88
2021/08/30 06:05:08;;;;;;;37.67;33.70;;;18.80;99.90;;;;;;4773956;23;10002136;-89
2021/08/30 06:07:33;;;;;;;38.30;32.10;;;16.90;99.90;;;;;;5004057;28;20204;-85
2021/08/30 06:10:00;;;;;;;37.90;32.80;;;17.10;99.90;;;;;;5004487;28;20421;-89
2021/08/30 06:12:26;;;;;;;38.90;33.70;;;17.00;99.90;;;;;;4984065;28;20228;-88
2021/08/30 06:14:52;;;;;;;35.60;31.90;;;17.00;99.90;;;;;;4986435;28;20444;-91
2021/08/30 06:17:17;;;;;;;34.73;31.07;;;19.10;99.90;;;;;;4987051;28;20217;-87
2021/08/30 06:20:04;;;;;;;36.70;32.83;;;16.80;99.90;;;;;;4991580;28;20292;-91
2021/08/30 06:22:32;;;;;;;36.10;31.30;;;17.20;99.90;;;;;;5006707;28;20204;-91
2021/08/30 06:25:28;;;;;;;42.60;34.07;;;17.10;99.90;;;;;;5009430;28;20420;-88
2021/08/30 06:27:55;;;;;;;36.40;32.43;;;17.10;99.90;;;;;;5011977;28;20432;-88
2021/08/30 06:30:35;;;;;;;37.13;33.07;;;17.10;99.90;;;;;;4995497;28;20433;-92
2021/08/30 06:33:04;;;;;;;37.50;31.50;;;16.40;99.90;;;;;;5150255;23;20474;-90
2021/08/30 06:35:51;;;;;;;37.07;33.23;;;17.60;99.90;;;;;;4960169;28;20445;-91
2021/08/30 06:38:16;;;;;;;35.80;32.10;;;17.40;99.90;;;;;;4977361;28;20457;-91
2021/08/30 06:41:06;;;;;;;39.93;32.10;;;17.80;99.90;;;;;;4957117;28;20528;-91
2021/08/30 06:43:35;;;;;;;36.63;31.57;;;16.50;99.90;;;;;;4972244;28;20418;-92
2021/08/30 06:46:01;;;;;;;34.40;30.00;;;17.70;99.90;;;;;;4971849;28;20436;-90
2021/08/30 06:48:39;;;;;;;;;;;;;;;;;;;;;
2021/08/30 06:54:37;;;;;;;36.57;29.57;;;17.80;99.90;;;;;;5047508;23;20497;-90
2021/08/30 07:00:18;;;;;;;;;;;;;;;;;;;;;
2021/08/30 07:02:48;;;;;;;38.07;30.23;;;17.90;99.90;;;;;;4994335;28;20448;-90
2021/08/30 07:07:54;;;;;;;39.83;29.23;;;18.10;99.90;;;;;;4430325;23;20500;-90
2021/08/30 07:10:21;;;;;;;37.60;28.87;;;19.90;99.90;;;;;;4995124;28;20452;-91
2021/08/30 07:12:49;;;;;;;32.97;28.00;;;18.20;99.90;;;;;;4993982;28;20445;-91
2021/08/30 07:15:23;;;;;;;37.77;30.40;;;18.20;99.90;;;;;;4977204;28;20525;-89
2021/08/30 07:18:20;;;;;;;38.30;30.83;;;18.70;99.90;;;;;;4976587;28;20457;-91
2021/08/30 07:20:51;;;;;;;32.93;28.60;;;18.50;99.90;;;;;;4978620;28;20428;-89
2021/08/30 07:23:18;;;;;;;43.30;32.40;;;19.80;99.90;;;;;;4992290;28;20397;-89
2021/08/30 07:25:49;;;;;;;38.90;28.27;;;19.30;99.90;;;;;;4960109;28;20477;-90
2021/08/30 07:28:39;;;;;;;34.37;29.60;;;18.00;99.90;;;;;;4989124;28;20524;-91
2021/08/30 07:31:08;;;;;;;29.53;24.87;;;18.10;99.90;;;;;;4992813;28;20402;-90
2021/08/30 07:33:42;;;;;;;30.33;27.17;;;18.30;99.90;;;;;;4994308;28;20476;-87
2021/08/30 07:36:21;;;;;;;32.83;25.23;;;18.30;99.90;;;;;;4971558;28;20433;-90
2021/08/30 09:11:22;;;;;;;23.90;21.40;;;19.40;97.50;;;;;;5098239;27;20507;-90
2021/08/30 09:13:54;;;;;;;23.93;21.73;;;20.00;97.40;;;;;;5099575;28;20427;-96
2021/08/30 09:16:21;;;;;;;25.37;23.00;;;19.40;96.20;;;;;;5100322;28;20408;-86
2021/08/30 09:29:22;;;;;;;25.13;22.90;;;20.20;95.60;;;;;;5063162;28;20456;-91
2021/08/30 09:32:16;;;;;;;24.40;22.23;;;19.40;95.00;;;;;;5067548;28;20418;-89
2021/08/30 09:35:02;;;;;;;22.97;20.97;;;20.00;94.90;;;;;;5062339;28;20473;-92
2021/08/30 09:37:28;;;;;;;25.90;22.80;;;21.60;96.20;;;;;;5063707;28;20418;-89
2021/08/30 09:40:11;;;;;;;20.00;18.20;;;20.60;96.10;;;;;;5044307;28;20524;-94
2021/08/30 09:42:58;;;;;;;21.97;20.10;;;20.50;94.70;;;;;;5045360;28;20999;-92
2021/08/30 09:46:01;;;;;;;22.87;20.97;;;20.80;94.00;;;;;;5045632;28;20425;-92
2021/08/30 09:49:15;;;;;;;48.97;43.60;;;22.20;94.60;;;;;;5062073;28;20935;-96
2021/08/30 09:51:42;;;;;;;22.73;20.50;;;21.50;92.70;;;;;;5050269;28;20429;-90
2021/08/30 09:54:29;;;;;;;22.50;20.47;;;23.40;92.70;;;;;;5047265;28;20481;-92
2021/08/30 09:56:58;;;;;;;20.50;18.50;;;22.00;89.90;;;;;;5043499;28;20429;-90
2021/08/30 09:59:43;;;;;;;21.97;19.87;;;23.30;90.90;;;;;;5042848;28;20421;-90
2021/08/30 10:02:15;;;;;;;25.43;18.63;;;22.20;87.30;;;;;;5062114;28;20418;-90
2021/08/30 10:05:02;;;;;;;18.83;17.30;;;22.00;86.10;;;;;;5056698;28;20428;-92
2021/08/30 10:07:40;;;;;;;19.20;17.60;;;21.80;87.20;;;;;;5042247;28;20517;-91
2021/08/30 10:10:06;;;;;;;19.03;17.43;;;23.00;88.00;;;;;;5041616;28;20405;-89
2021/08/30 10:13:15;;;;;;;;;;;;;;;;;;;;;
2021/08/30 10:16:01;;;;;;;19.23;17.73;;;22.20;84.70;;;;;;5061102;28;20530;-90
2021/08/30 10:18:27;;;;;;;19.50;17.87;;;22.30;84.60;;;;;;5057410;28;20454;-88
2021/08/30 10:21:16;;;;;;;21.77;19.70;;;22.50;84.20;;;;;;5029062;28;20418;-89
2021/08/30 10:23:48;;;;;;;19.40;17.70;;;23.50;84.10;;;;;;5008666;28;20184;-91
2021/08/30 10:26:14;;;;;;;18.97;17.10;;;23.00;81.50;;;;;;5041817;28;20411;-91
2021/08/30 10:28:46;;;;;;;18.73;17.33;;;22.70;81.20;;;;;;5043814;28;20427;-88
2021/08/30 10:31:49;;;;;;;20.23;18.23;;;22.50;80.60;;;;;;5045110;28;20423;-89
2021/08/30 10:34:28;;;;;;;19.07;17.67;;;22.10;81.30;;;;;;5025185;28;20470;-91
2021/08/30 10:37:11;;;;;;;19.90;17.83;;;21.80;82.50;;;;;;5032551;28;20442;-89
2021/08/30 10:40:20;;;;;;;19.17;17.27;;;21.20;84.20;;;;;;5053863;28;20451;-90
2021/08/30 10:43:28;;;;;;;;;;;;;;;;;;;;;
2021/08/30 10:46:14;;;;;;;17.30;15.80;;;20.60;85.20;;;;;;5065744;28;20426;-90
2021/08/30 10:48:50;;;;;;;17.83;16.23;;;21.70;85.00;;;;;;5062628;28;20451;-86
2021/08/30 10:51:45;;;;;;;18.17;16.77;;;21.60;84.30;;;;;;5046922;28;20409;-88
2021/08/30 10:54:19;;;;;;;18.47;16.77;;;21.80;83.40;;;;;;5065723;28;20453;-89
2021/08/30 10:57:36;;;;;;;17.87;16.23;;;23.10;85.70;;;;;;5064393;28;20421;-88
2021/08/30 11:00:30;;;;;;;21.20;17.33;;;22.60;83.80;;;;;;5038472;28;20402;-89
2021/08/30 11:03:00;;;;;;;17.57;16.17;;;21.80;82.80;;;;;;5039166;28;20436;-89
2021/08/30 11:05:42;;;;;;;19.07;17.23;;;21.60;83.20;;;;;;5028539;28;20831;-92
2021/08/30 11:08:19;;;;;;;18.37;16.80;;;22.10;82.60;;;;;;5027253;28;20415;-92
2021/08/30 11:10:54;;;;;;;17.50;16.03;;;24.00;83.20;;;;;;5025741;28;20403;-91
2021/08/30 11:13:26;;;;;;;44.20;21.27;;;23.00;77.40;;;;;;5021516;28;20433;-90
2021/08/30 11:16:15;;;;;;;19.37;16.93;;;23.00;78.30;;;;;;5027769;28;20994;-91
2021/08/30 11:19:10;;;;;;;15.47;13.80;;;23.00;75.80;;;;;;5036794;28;20418;-90
2021/08/30 11:21:42;;;;;;;16.83;15.33;;;23.30;74.40;;;;;;5064015;28;20442;-88
2021/08/30 11:24:35;;;;;;;15.67;14.37;;;23.60;72.50;;;;;;5057991;28;20529;-89
2021/08/30 11:27:27;;;;;;;;;;;;;;;;;;;;;
2021/08/30 11:30:23;;;;;;;;;;;;;;;;;;;;;
2021/08/30 11:33:12;;;;;;;18.53;17.13;;;24.30;68.90;;;;;;5039773;28;20505;-90
2021/08/30 11:35:47;;;;;;;12.90;11.97;;;24.80;66.10;;;;;;5043276;28;20490;-89
2021/08/30 11:38:19;;;;;;;13.43;12.53;;;25.40;64.90;;;;;;5061025;28;20505;-92
2021/08/30 11:40:47;;;;;;;13.37;12.57;;;25.90;60.50;;;;;;5047549;28;20437;-90
2021/08/30 11:43:17;;;;;;;14.13;13.10;;;25.90;59.50;;;;;;5045557;28;20433;-92
2021/08/30 11:46:09;;;;;;;12.07;10.97;;;26.10;59.00;;;;;;5045723;28;20410;-90
2021/08/30 11:48:58;;;;;;;12.77;11.77;;;26.40;56.50;;;;;;5044026;28;20426;-93
2021/08/30 11:51:26;;;;;;;13.07;12.27;;;26.40;57.50;;;;;;5046843;28;20415;-90
2021/08/30 11:54:19;;;;;;;12.40;11.60;;;27.30;57.40;;;;;;5029766;28;20415;-92
2021/08/30 11:57:28;;;;;;;13.43;12.37;;;25.80;57.10;;;;;;5060196;28;20906;-92
2021/08/30 11:59:57;;;;;;;12.40;11.60;;;26.10;58.40;;;;;;5041676;28;20445;-91
2021/08/30 12:02:23;;;;;;;12.70;11.77;;;25.00;57.50;;;;;;5043532;28;20447;-93
2021/08/30 12:05:01;;;;;;;12.90;12.10;;;25.40;61.00;;;;;;5045745;28;20407;-91
2021/08/30 12:07:34;;;;;;;13.70;12.60;;;24.30;59.50;;;;;;5042688;28;20283;-93
2021/08/30 12:10:23;;;;;;;12.80;11.90;;;24.40;60.30;;;;;;5044623;28;20493;-91
2021/08/30 12:15:30;;;;;;;13.20;12.10;;;24.10;61.60;;;;;;5023824;28;20703;-93
2021/08/30 12:18:06;;;;;;;12.67;11.50;;;24.10;59.60;;;;;;5020257;28;20459;-89
2021/08/30 12:20:51;;;;;;;;;;;;;;;;;;;;;
2021/08/30 12:23:22;;;;;;;12.43;11.63;;;27.50;58.00;;;;;;5020717;28;20514;-90
2021/08/30 12:25:52;;;;;;;11.13;10.40;;;26.60;55.70;;;;;;5037209;28;20466;-93
2021/08/30 12:28:56;;;;;;;11.23;10.53;;;27.50;54.10;;;;;;5042310;28;20407;-92
2021/08/30 12:31:36;;;;;;;9.50;8.90;;;28.10;53.00;;;;;;5040725;28;20866;-88
2021/08/30 12:34:16;;;;;;;10.30;9.63;;;29.50;50.30;;;;;;5038259;28;20518;-92
2021/08/30 12:36:45;;;;;;;9.47;8.97;;;29.90;48.30;;;;;;5020901;28;20427;-89
2021/08/30 12:39:11;;;;;;;9.20;8.70;;;29.90;47.40;;;;;;5038253;28;20889;-92
2021/08/30 12:41:36;;;;;;;9.03;8.53;;;31.60;45.80;;;;;;5023315;28;20422;-92
2021/08/30 12:44:05;;;;;;;9.10;8.70;;;32.50;44.10;;;;;;5019820;28;20185;-91
2021/08/30 12:46:35;;;;;;;8.47;8.07;;;32.30;42.90;;;;;;5021679;28;20259;-90
2021/08/30 12:49:15;;;;;;;9.43;8.83;;;32.50;43.00;;;;;;5022336;28;20447;-92
2021/08/30 12:51:43;;;;;;;9.90;9.30;;;32.50;42.60;;;;;;5003929;28;20411;-90
2021/08/30 12:54:16;;;;;;;10.30;9.47;;;30.40;43.10;;;;;;5002453;28;20526;-89
2021/08/30 12:56:54;;;;;;;10.43;9.73;;;27.30;47.10;;;;;;5005254;28;20435;-93
2021/08/30 12:59:20;;;;;;;11.00;10.40;;;27.40;48.50;;;;;;5039137;28;20398;-90
2021/08/30 13:05:03;;;;;;;9.07;8.47;;;25.50;51.00;;;;;;5002369;28;20687;-89
2021/08/30 13:07:50;;;;;;;9.90;9.10;;;25.10;50.40;;;;;;5035028;28;20395;-88
2021/08/30 13:10:19;;;;;;;9.70;9.20;;;24.90;51.30;;;;;;5034798;28;20426;-88
2021/08/30 13:12:48;;;;;;;10.10;9.10;;;24.50;52.50;;;;;;5036755;28;20414;-90
2021/08/30 13:15:26;;;;;;;9.67;8.97;;;25.20;53.40;;;;;;5041911;28;20469;-92
2021/08/30 13:17:58;;;;;;;8.90;8.50;;;24.30;52.00;;;;;;5023113;28;20720;-90
2021/08/30 13:20:32;;;;;;;9.90;9.10;;;24.60;53.70;;;;;;5027027;28;20406;-90
2021/08/30 13:23:14;;;;;;;9.00;8.50;;;24.10;52.20;;;;;;5044928;28;20465;-91
2021/08/30 13:26:03;;;;;;;8.80;8.10;;;24.20;52.80;;;;;;5041320;28;20545;-92
2021/08/30 13:28:33;;;;;;;8.73;8.10;;;24.50;52.90;;;;;;5042578;28;20414;-91
2021/08/30 13:31:09;;;;;;;9.33;8.53;;;25.50;52.60;;;;;;5047536;28;20498;-89
2021/08/30 13:33:38;;;;;;;9.17;8.53;;;24.60;52.30;;;;;;5050408;28;20411;-90
2021/08/30 13:36:04;;;;;;;8.27;7.77;;;25.00;52.50;;;;;;5029137;28;20462;-88
2021/08/30 13:38:31;;;;;;;8.80;8.27;;;25.40;52.40;;;;;;5043589;28;20415;-92
2021/08/30 13:41:00;;;;;;;9.83;9.03;;;26.20;52.20;;;;;;5043827;28;20918;-92
2021/08/30 13:43:34;;;;;;;9.27;8.60;;;25.40;51.60;;;;;;5026164;28;20914;-94
2021/08/30 13:46:04;;;;;;;8.43;7.90;;;24.40;51.00;;;;;;5042290;28;20430;-87
2021/08/30 13:48:41;;;;;;;8.43;7.93;;;24.50;52.70;;;;;;5045428;28;20418;-92
2021/08/30 13:51:08;;;;;;;10.13;9.43;;;24.00;53.60;;;;;;5027799;28;20407;-94
2021/08/30 13:53:42;;;;;;;11.50;10.50;;;24.80;54.10;;;;;;5045589;28;20477;-92
2021/08/30 13:56:18;;;;;;;;;;;;;;;;;;;;;
2021/08/30 13:58:46;;;;;;;9.53;8.93;;;23.40;56.00;;;;;;5045186;28;20493;-94
2021/08/30 14:01:12;;;;;;;9.20;8.50;;;23.70;56.60;;;;;;5044981;28;20415;-89
2021/08/30 14:03:41;;;;;;;10.17;9.47;;;23.30;57.70;;;;;;5049297;28;20429;-93
2021/08/30 14:06:31;;;;;;;;;;;;;;;;;;;;;
2021/08/30 14:09:04;;;;;;;8.83;8.27;;;22.60;57.50;;;;;;5048661;28;20827;-91
2021/08/30 14:11:33;;;;;;;8.67;8.00;;;22.40;58.30;;;;;;5048892;28;21009;-89
2021/08/30 14:14:10;;;;;;;8.93;8.13;;;22.40;56.80;;;;;;5051271;28;20518;-91
2021/08/30 14:16:55;;;;;;;8.50;7.90;;;22.40;57.30;;;;;;5032494;28;20425;-92
2021/08/30 14:19:21;;;;;;;9.17;8.57;;;22.40;56.60;;;;;;5018028;28;20419;-92
2021/08/30 14:21:48;;;;;;;8.37;7.67;;;22.50;57.40;;;;;;5030805;28;20466;-88
2021/08/30 14:24:15;;;;;;;8.87;8.27;;;22.10;56.80;;;;;;5031043;28;20187;-93
2021/08/30 14:26:42;;;;;;;8.33;7.90;;;22.90;56.40;;;;;;5030399;28;20422;-89
2021/08/30 14:29:51;;;;;;;8.33;7.73;;;23.00;56.20;;;;;;5026384;28;20422;-88
2021/08/30 14:32:17;;;;;;;6.83;6.33;;;24.60;57.50;;;;;;5046639;28;20383;-89
2021/08/30 14:34:51;;;;;;;7.73;7.27;;;23.20;55.80;;;;;;4663498;28;10000400;-91
2021/08/30 14:37:17;;;;;;;7.80;7.30;;;23.40;55.40;;;;;;5043917;28;20194;-88
2021/08/30 14:39:43;;;;;;;8.50;7.97;;;23.90;56.20;;;;;;5047549;28;20410;-90
2021/08/30 14:42:12;;;;;;;8.40;7.90;;;23.90;55.90;;;;;;5027364;28;20415;-91
2021/08/30 14:44:48;;;;;;;7.80;7.30;;;24.00;56.90;;;;;;5065353;23;20497;-87
2021/08/30 14:47:20;;;;;;;8.10;7.60;;;23.50;55.80;;;;;;5007150;28;20476;-89
2021/08/30 14:50:08;;;;;;;7.20;6.77;;;23.60;56.00;;;;;;4973070;28;20457;-92
2021/08/30 14:52:34;;;;;;;7.67;7.20;;;23.50;56.90;;;;;;4988833;28;20461;-89
2021/08/30 14:55:03;;;;;;;9.23;8.73;;;22.80;56.50;;;;;;4988433;28;20541;-88
2021/08/30 14:57:29;;;;;;;7.37;7.07;;;22.80;56.80;;;;;;4987055;28;20924;-88
2021/08/30 14:59:55;;;;;;;8.20;7.70;;;24.80;58.80;;;;;;4986743;28;20440;-86
2021/08/30 15:02:20;;;;;;;8.20;7.50;;;23.40;57.80;;;;;;4999938;28;20190;-85
2021/08/30 15:04:52;;;;;;;8.57;8.10;;;23.00;57.10;;;;;;4988253;28;20426;-88
2021/08/30 15:07:32;;;;;;;8.50;7.90;;;23.20;56.90;;;;;;5000462;28;20170;-92
2021/08/30 15:10:13;;;;;;;9.00;8.17;;;22.60;56.70;;;;;;4986292;28;20523;-88
2021/08/30 15:12:41;;;;;;;8.40;7.90;;;23.20;56.70;;;;;;4988455;28;20417;-90
2021/08/30 15:15:19;;;;;;;7.77;6.73;;;23.30;57.10;;;;;;5000950;28;20469;-90
2021/08/30 15:17:58;;;;;;;8.53;8.03;;;23.30;56.40;;;;;;4987451;28;20410;-87
2021/08/30 15:20:28;;;;;;;7.80;7.50;;;23.80;57.80;;;;;;5003263;28;20931;-86
2021/08/30 15:23:05;;;;;;;8.17;7.70;;;24.70;56.80;;;;;;5002677;28;20187;-91
2021/08/30 15:25:31;;;;;;;8.90;8.40;;;23.60;56.20;;;;;;4986980;28;20429;-89
2021/08/30 15:27:57;;;;;;;9.67;8.93;;;25.00;57.20;;;;;;4984728;28;20489;-88
2021/08/30 15:30:26;;;;;;;8.60;7.90;;;24.70;56.90;;;;;;5001422;28;20174;-88
2021/08/30 15:32:56;;;;;;;8.40;8.00;;;23.70;56.50;;;;;;5001353;28;20442;-87
2021/08/30 15:35:25;;;;;;;8.97;8.33;;;23.80;56.60;;;;;;5000753;28;20576;-88
2021/08/30 15:38:16;;;;;;;9.07;8.60;;;24.60;57.40;;;;;;4988588;28;20421;-91
2021/08/30 15:40:49;;;;;;;29.40;27.60;;;23.80;56.60;;;;;;4988729;28;20432;-93
2021/08/30 15:43:20;;;;;;;10.60;9.90;;;23.10;56.90;;;;;;5004075;28;20460;-89
2021/08/30 15:45:46;;;;;;;10.37;9.63;;;23.50;57.80;;;;;;5005240;28;20538;-88
2021/08/30 15:48:21;;;;;;;9.40;8.80;;;23.50;58.50;;;;;;4992471;28;20414;-89
2021/08/30 15:50:47;;;;;;;9.97;9.33;;;23.40;58.60;;;;;;5020897;28;20441;-86
2021/08/30 15:53:13;;;;;;;10.13;9.13;;;23.30;59.10;;;;;;5138069;23;20576;-86
2021/08/30 15:56:03;;;;;;;10.03;9.20;;;23.40;59.90;;;;;;4972525;28;20238;-90
2021/08/30 15:58:37;;;;;;;10.20;9.60;;;23.40;58.50;;;;;;4989575;28;20179;-90